createdAt,value
2023-04-06T00:01:21.166Z,6.27
2023-04-06T00:06:42.662Z,6.87
2023-04-06T00:12:04.278Z,6.33
2023-04-06T00:17:25.866Z,7.17
2023-04-06T00:22:47.687Z,6.77
2023-04-06T00:28:08.860Z,7.40
2023-04-06T00:33:30.249Z,6.73
2023-04-06T00:38:51.934Z,8.20
2023-04-06T00:44:13.768Z,7.57
2023-04-06T00:49:36.184Z,8.17
2023-04-06T00:54:57.687Z,7.63
2023-04-06T01:00:19.540Z,7.13
2023-04-06T01:05:43.771Z,7.43
2023-04-06T01:11:19.667Z,7.77
2023-04-06T01:16:43.201Z,7.97
2023-04-06T01:22:08.578Z,7.13
2023-04-06T01:27:39.663Z,7.07
2023-04-06T01:33:21.248Z,7.40
2023-04-06T01:38:58.228Z,7.23
2023-04-06T01:44:27.077Z,7.33
2023-04-06T01:50:00.282Z,7.53
2023-04-06T01:55:26.412Z,6.70
2023-04-06T02:01:07.639Z,8.23
2023-04-06T02:06:43.148Z,7.07
2023-04-06T02:12:07.320Z,7.23
2023-04-06T02:17:29.684Z,7.80
2023-04-06T02:22:51.272Z,7.30
2023-04-06T02:28:12.596Z,8.53
2023-04-06T02:33:33.979Z,8.47
2023-04-06T02:38:55.827Z,7.53
2023-04-06T02:44:17.400Z,7.77
2023-04-06T02:49:39.765Z,8.03
2023-04-06T02:55:01.143Z,8.17
2023-04-06T03:00:25.229Z,8.03
2023-04-06T03:05:46.601Z,7.10
2023-04-06T03:11:09.268Z,7.77
2023-04-06T03:16:35.765Z,7.17
2023-04-06T03:21:57.592Z,8.23
2023-04-06T03:27:19.826Z,8.20
2023-04-06T03:32:43.285Z,8.50
2023-04-06T03:38:05.648Z,8.67
2023-04-06T03:43:27.008Z,7.60
2023-04-06T03:48:50.805Z,8.33
2023-04-06T03:54:14.400Z,8.43
2023-04-06T03:59:36.351Z,8.50
2023-04-06T04:04:57.803Z,7.30
2023-04-06T04:10:19.795Z,7.97
2023-04-06T04:15:41.865Z,8.30
2023-04-06T04:21:04.295Z,8.87
2023-04-06T04:26:28.287Z,8.20
2023-04-06T04:31:50.808Z,8.30
2023-04-06T04:37:13.024Z,8.73
2023-04-06T04:42:46.061Z,8.97
2023-04-06T04:48:13.834Z,9.23
2023-04-06T04:53:46.625Z,8.23
2023-04-06T04:59:15.790Z,9.57
2023-04-06T05:04:44.270Z,9.10
2023-04-06T05:10:12.239Z,8.70
2023-04-06T05:15:44.485Z,8.87
2023-04-06T05:21:28.977Z,9.63
2023-04-06T05:26:58.543Z,9.47
2023-04-06T05:32:23.169Z,9.77
2023-04-06T05:37:46.933Z,10.13
2023-04-06T05:43:09.677Z,10.13
2023-04-06T05:48:33.831Z,10.40
2023-04-06T05:53:56.928Z,9.73
2023-04-06T05:59:18.453Z,10.27
2023-04-06T06:04:40.586Z,10.87
2023-04-06T06:10:02.046Z,10.43
2023-04-06T06:15:27.519Z,11.10
2023-04-06T06:20:49.043Z,11.20
2023-04-06T06:26:10.695Z,12.23
2023-04-06T06:31:32.748Z,12.73
2023-04-06T06:36:56.367Z,12.37
2023-04-06T06:42:18.666Z,12.40
2023-04-06T06:47:59.901Z,12.03
2023-04-06T06:53:22.066Z,11.53
2023-04-06T06:58:44.056Z,11.50
2023-04-06T07:04:06.187Z,12.60
2023-04-06T07:09:27.967Z,11.90
2023-04-06T07:14:49.382Z,10.73
2023-04-06T07:20:11.550Z,8.93
2023-04-06T07:25:32.969Z,7.77
2023-04-06T07:30:55.542Z,8.00
2023-04-06T07:36:17.895Z,8.10
2023-04-06T07:41:39.362Z,8.00
2023-04-06T07:47:01.593Z,8.33
2023-04-06T07:52:23.503Z,7.87
2023-04-06T07:57:45.418Z,7.97
2023-04-06T08:03:07.027Z,7.33
2023-04-06T08:08:28.561Z,6.43
2023-04-06T08:13:50.029Z,6.30
2023-04-06T08:19:12.148Z,6.83
2023-04-06T08:24:33.626Z,6.77
2023-04-06T08:29:55.214Z,6.10
2023-04-06T08:35:16.830Z,6.13
2023-04-06T08:40:41.958Z,6.37
2023-04-06T08:46:04.184Z,6.83
2023-04-06T08:51:29.017Z,6.10
2023-04-06T08:56:50.745Z,6.53
2023-04-06T09:02:20.377Z,6.83
2023-04-06T09:07:41.824Z,6.33
2023-04-06T09:13:10.337Z,6.87
2023-04-06T09:18:37.763Z,6.13
2023-04-06T09:24:03.447Z,6.70
2023-04-06T09:29:28.117Z,6.23
2023-04-06T09:34:50.912Z,6.47
2023-04-06T09:40:13.235Z,6.90
2023-04-06T09:45:35.020Z,6.87
2023-04-06T09:51:01.274Z,6.70
2023-04-06T09:56:29.101Z,6.97
2023-04-06T10:01:52.718Z,6.73
2023-04-06T10:07:16.675Z,7.23
2023-04-06T10:12:39.646Z,6.80
2023-04-06T10:18:03.479Z,6.90
2023-04-06T10:23:51.708Z,7.03
2023-04-06T10:29:13.476Z,7.00
2023-04-06T10:34:37.895Z,6.67
2023-04-06T10:39:59.509Z,6.43
2023-04-06T10:45:22.437Z,6.50
2023-04-06T10:50:51.908Z,6.50
2023-04-06T10:56:15.818Z,6.63
2023-04-06T11:01:37.097Z,5.80
2023-04-06T11:06:59.193Z,6.33
2023-04-06T11:12:28.893Z,5.97
2023-04-06T11:17:50.625Z,6.37
2023-04-06T11:23:11.845Z,6.80
2023-04-06T11:28:33.362Z,5.97
2023-04-06T11:33:58.908Z,5.87
2023-04-06T11:39:25.008Z,6.50
2023-04-06T11:44:47.272Z,6.10
2023-04-06T11:50:14.404Z,5.90
2023-04-06T11:55:42.050Z,6.33
2023-04-06T12:01:06.849Z,6.87
2023-04-06T12:06:28.389Z,5.90
2023-04-06T12:11:49.964Z,5.67
2023-04-06T12:17:11.410Z,6.03
2023-04-06T12:22:33.013Z,5.40
2023-04-06T12:27:54.848Z,5.43
2023-04-06T12:33:16.545Z,5.63
2023-04-06T12:38:42.271Z,5.50
2023-04-06T12:44:03.713Z,6.20
2023-04-06T12:49:25.121Z,5.97
2023-04-06T12:54:48.657Z,6.60
2023-04-06T13:00:11.676Z,5.97
2023-04-06T13:05:33.690Z,5.70
2023-04-06T13:10:55.943Z,6.53
2023-04-06T13:16:18.095Z,6.73
2023-04-06T13:21:40.095Z,6.30
2023-04-06T13:27:01.866Z,6.50
2023-04-06T13:32:23.260Z,6.60
2023-04-06T13:37:45.407Z,6.37
2023-04-06T13:43:07.329Z,6.83
2023-04-06T13:48:28.944Z,7.23
2023-04-06T13:53:53.709Z,6.30
2023-04-06T13:59:15.900Z,6.80
2023-04-06T14:04:38.204Z,6.83
2023-04-06T14:09:59.858Z,6.23
2023-04-06T14:15:23.012Z,6.13
2023-04-06T14:20:45.035Z,7.70
2023-04-06T14:26:08.002Z,7.70
2023-04-06T14:31:29.456Z,6.93
2023-04-06T14:36:51.110Z,7.00
2023-04-06T14:42:12.650Z,6.53
2023-04-06T14:47:34.070Z,7.17
2023-04-06T14:52:55.970Z,7.23
2023-04-06T14:58:17.420Z,7.43
2023-04-06T15:03:39.044Z,7.60
2023-04-06T15:09:00.807Z,7.20
2023-04-06T15:14:21.966Z,9.40
2023-04-06T15:19:43.567Z,7.93
2023-04-06T15:25:05.606Z,8.30
2023-04-06T15:30:27.165Z,8.53
2023-04-06T15:35:49.036Z,8.73
2023-04-06T15:41:11.503Z,8.40
2023-04-06T15:46:32.911Z,7.60
2023-04-06T15:51:54.541Z,8.13
2023-04-06T15:57:16.387Z,8.00
2023-04-06T16:02:38.300Z,8.40
2023-04-06T16:07:59.894Z,8.63
2023-04-06T16:13:21.629Z,8.83
2023-04-06T16:18:45.841Z,9.00
2023-04-06T16:24:07.340Z,8.60
2023-04-06T16:29:29.890Z,8.33
2023-04-06T16:34:52.367Z,12.03
2023-04-06T16:40:15.180Z,9.00
2023-04-06T16:45:37.130Z,9.03
2023-04-06T16:50:58.590Z,8.33
2023-04-06T16:56:21.081Z,9.37
2023-04-06T17:01:42.451Z,9.97
2023-04-06T17:07:04.067Z,10.07
2023-04-06T17:12:25.566Z,10.57
2023-04-06T17:17:47.235Z,10.53
2023-04-06T17:23:08.730Z,11.20
2023-04-06T17:28:30.235Z,10.00
2023-04-06T17:33:52.206Z,10.70
2023-04-06T17:39:13.748Z,10.60
2023-04-06T17:44:35.601Z,10.67
2023-04-06T17:49:57.021Z,11.47
2023-04-06T17:55:21.388Z,10.60
2023-04-06T18:00:42.703Z,11.37
2023-04-06T18:06:14.862Z,12.60
2023-04-06T18:11:36.597Z,11.67
2023-04-06T18:16:58.072Z,13.13
2023-04-06T18:22:20.804Z,12.07
2023-04-06T18:27:42.376Z,14.07
2023-04-06T18:33:04.400Z,16.17
2023-04-06T18:38:26.035Z,13.83
2023-04-06T18:43:47.568Z,11.90
2023-04-06T18:49:09.076Z,12.03
2023-04-06T18:54:30.386Z,12.00
2023-04-06T18:59:51.967Z,11.80
2023-04-06T19:05:13.830Z,10.83
2023-04-06T19:10:37.391Z,11.20
2023-04-06T19:15:58.674Z,12.47
2023-04-06T19:21:21.883Z,12.57
2023-04-06T19:26:43.636Z,14.17
2023-04-06T19:32:08.414Z,12.23
2023-04-06T19:37:30.050Z,12.77
2023-04-06T19:42:51.550Z,12.60
2023-04-06T19:48:12.790Z,14.10
2023-04-06T19:53:34.350Z,13.57
2023-04-06T19:58:55.793Z,12.90
2023-04-06T20:04:17.459Z,13.73
2023-04-06T20:09:38.856Z,12.87
2023-04-06T20:15:00.516Z,13.40
2023-04-06T20:20:22.087Z,12.80
2023-04-06T20:25:43.870Z,13.10
2023-04-06T20:31:05.576Z,12.97
2023-04-06T20:36:28.210Z,13.33
2023-04-06T20:41:51.352Z,12.23
2023-04-06T20:47:12.866Z,11.73
2023-04-06T20:52:34.882Z,11.70
2023-04-06T20:57:56.062Z,13.37
2023-04-06T21:03:18.250Z,12.40
2023-04-06T21:08:39.745Z,12.40
2023-04-06T21:14:01.304Z,11.30
2023-04-06T21:19:23.233Z,10.63
2023-04-06T21:24:45.965Z,11.57
2023-04-06T21:30:08.274Z,9.87
2023-04-06T21:35:29.837Z,12.00
2023-04-06T21:40:57.759Z,11.60
2023-04-06T21:46:19.016Z,10.53
2023-04-06T21:51:41.802Z,10.03
2023-04-06T21:57:03.156Z,10.47
2023-04-06T22:02:24.922Z,10.50
2023-04-06T22:07:46.804Z,11.30
2023-04-06T22:13:08.003Z,10.40
2023-04-06T22:18:29.718Z,10.30
2023-04-06T22:23:51.585Z,11.10
2023-04-06T22:29:13.065Z,12.13
2023-04-06T22:34:34.541Z,10.07
2023-04-06T22:39:56.237Z,12.43
2023-04-06T22:45:18.066Z,13.00
2023-04-06T22:50:39.491Z,13.17
2023-04-06T22:56:01.056Z,11.63
2023-04-06T23:01:22.512Z,11.63
2023-04-06T23:06:44.439Z,12.27
2023-04-06T23:12:06.089Z,12.50
2023-04-06T23:17:27.587Z,13.30
2023-04-06T23:22:49.078Z,12.63
2023-04-06T23:28:10.438Z,13.13
2023-04-06T23:33:31.955Z,12.30
2023-04-06T23:38:56.592Z,12.37
2023-04-06T23:44:18.009Z,12.83
2023-04-06T23:49:39.583Z,12.30
2023-04-06T23:55:01.222Z,12.73
